Mortlake, Australia
Current Conditions -  °F | °C
As of 5:00 PM on Saturday 25 Oct 2014 (Local Time) from YMAV Reporting Station
Scattered Clouds Scattered Clouds  
Wind Chill: 63°   Ceiling: Unl
Heat Index: 63°   Visibility: 6mi
Dew Point: 50°   Wind: 17mph
Humidity: 63%   Direction: 180°S
Pressure: 29.97"   Gusts: NA
Location:  38.08°S, 142.81°E
Report Text: YMAV 250600Z AUTO 18015KT 9999 // SCT024 17/10 Q1015
Loading
Personal Weather Stations






























Interactive Weather Map
Tropical Storm Tracking
New forecast layout! Learn more

10-Day Weather Forecast

Advertisements
Track Severe Weather on mobile